createdAt,value
2022-10-18T00:04:04.002Z,100.00
2022-10-18T00:09:05.519Z,100.00
2022-10-18T00:14:07.218Z,100.00
2022-10-18T00:19:08.703Z,100.00
2022-10-18T00:24:10.176Z,100.00
2022-10-18T00:29:14.690Z,100.00
2022-10-18T00:34:16.857Z,100.00
2022-10-18T00:39:20.920Z,100.00
2022-10-18T00:44:25.243Z,100.00
2022-10-18T00:49:40.882Z,100.00
2022-10-18T00:54:45.107Z,100.00
2022-10-18T00:59:47.454Z,100.00
2022-10-18T01:04:48.995Z,100.00
2022-10-18T01:10:00.362Z,100.00
2022-10-18T01:15:28.567Z,100.00
2022-10-18T01:20:45.249Z,100.00
2022-10-18T01:25:52.081Z,100.00
2022-10-18T01:31:03.634Z,100.00
2022-10-18T01:36:08.332Z,100.00
2022-10-18T01:41:15.756Z,100.00
2022-10-18T01:46:22.158Z,100.00
2022-10-18T01:51:29.200Z,100.00
2022-10-18T01:56:38.214Z,100.00
2022-10-18T02:02:01.140Z,100.00
2022-10-18T02:07:41.015Z,100.00
2022-10-18T02:12:44.909Z,100.00
2022-10-18T02:17:47.265Z,100.00
2022-10-18T02:22:50.654Z,100.00
2022-10-18T02:27:52.513Z,100.00
2022-10-18T02:33:04.052Z,100.00
2022-10-18T02:38:08.058Z,100.00
2022-10-18T02:43:09.519Z,100.00
2022-10-18T02:48:10.991Z,100.00
2022-10-18T02:53:12.428Z,100.00
2022-10-18T02:58:14.720Z,100.00
2022-10-18T03:03:16.170Z,100.00
2022-10-18T03:08:18.181Z,100.00
2022-10-18T03:13:19.696Z,100.00
2022-10-18T03:18:21.180Z,100.00
2022-10-18T03:23:22.625Z,100.00
2022-10-18T03:28:24.071Z,100.00
2022-10-18T03:33:25.599Z,100.00
2022-10-18T03:38:27.208Z,100.00
2022-10-18T03:43:28.644Z,100.00
2022-10-18T03:48:30.129Z,100.00
2022-10-18T03:53:31.588Z,100.00
2022-10-18T04:03:35.361Z,100.00
2022-10-18T04:08:36.792Z,100.00
2022-10-18T04:13:38.802Z,100.00
2022-10-18T04:18:40.251Z,100.00
2022-10-18T04:23:41.813Z,100.00
2022-10-18T04:28:44.152Z,100.00
2022-10-18T04:33:45.575Z,100.00
2022-10-18T04:38:46.995Z,100.00
2022-10-18T04:43:48.692Z,100.00
2022-10-18T04:48:50.091Z,100.00
2022-10-18T04:53:51.595Z,100.00
2022-10-18T04:58:53.026Z,100.00
2022-10-18T05:03:55.363Z,100.00
2022-10-18T05:08:57.003Z,100.00
2022-10-18T05:13:58.491Z,100.00
2022-10-18T05:18:59.887Z,100.00
2022-10-18T05:24:01.404Z,100.00
2022-10-18T05:29:03.818Z,100.00
2022-10-18T05:34:05.433Z,100.00
2022-10-18T05:39:06.901Z,100.00
2022-10-18T05:44:08.363Z,100.00
2022-10-18T05:49:12.623Z,100.00
2022-10-18T05:54:14.274Z,100.00
2022-10-18T05:59:15.796Z,100.00
2022-10-18T06:04:17.941Z,100.00
2022-10-18T06:09:19.443Z,100.00
2022-10-18T06:14:20.901Z,100.00
2022-10-18T06:19:23.640Z,100.00
2022-10-18T06:24:25.273Z,100.00
2022-10-18T06:29:26.917Z,100.00
2022-10-18T06:34:28.344Z,100.00
2022-10-18T06:39:29.895Z,100.00
2022-10-18T06:44:31.637Z,100.00
2022-10-18T06:49:33.087Z,100.00
2022-10-18T06:54:34.612Z,100.00
2022-10-18T06:59:36.089Z,100.00
2022-10-18T07:04:37.606Z,100.00
2022-10-18T07:09:39.163Z,100.00
2022-10-18T07:14:40.886Z,100.00
2022-10-18T07:19:42.434Z,100.00
2022-10-18T07:24:44.039Z,100.00
2022-10-18T07:29:45.515Z,100.00
2022-10-18T07:34:47.031Z,100.00
2022-10-18T07:39:48.472Z,100.00
2022-10-18T07:44:50.005Z,100.00
2022-10-18T07:49:51.664Z,100.00
2022-10-18T07:54:53.225Z,100.00
2022-10-18T07:59:57.027Z,100.00
2022-10-18T08:04:58.477Z,100.00
2022-10-18T08:09:59.963Z,99.44
2022-10-18T08:15:01.511Z,97.78
2022-10-18T08:20:12.449Z,98.82
2022-10-18T08:25:25.060Z,99.51
2022-10-18T08:30:26.572Z,97.84
2022-10-18T08:35:28.150Z,95.56
2022-10-18T08:40:30.988Z,95.16
2022-10-18T08:45:42.257Z,95.25
2022-10-18T08:50:44.223Z,95.16
2022-10-18T08:56:05.072Z,94.09
2022-10-18T09:01:31.482Z,86.61
2022-10-18T09:06:42.671Z,81.58
2022-10-18T09:12:05.767Z,76.34
2022-10-18T09:17:22.773Z,75.86
2022-10-18T09:22:53.099Z,76.63
2022-10-18T09:28:08.424Z,79.69
2022-10-18T09:33:35.667Z,82.40
2022-10-18T09:38:49.564Z,83.26
2022-10-18T09:44:15.566Z,82.70
2022-10-18T09:49:27.131Z,82.39
2022-10-18T09:54:36.634Z,83.10
2022-10-18T09:59:42.437Z,82.88
2022-10-18T10:04:44.144Z,81.64
2022-10-18T10:09:56.828Z,76.03
2022-10-18T10:15:20.984Z,71.65
2022-10-18T10:20:44.278Z,69.38
2022-10-18T10:25:55.288Z,65.51
2022-10-18T10:31:30.929Z,60.58
2022-10-18T10:36:33.594Z,60.14
2022-10-18T10:41:35.338Z,57.40
2022-10-18T10:46:36.955Z,59.08
2022-10-18T10:51:40.151Z,62.50
2022-10-18T10:57:22.577Z,61.94
2022-10-18T11:02:32.188Z,59.71
2022-10-18T11:07:40.954Z,59.62
2022-10-18T11:12:48.529Z,56.84
2022-10-18T11:18:08.206Z,60.74
2022-10-18T11:23:15.422Z,65.31
2022-10-18T11:28:38.143Z,68.34
2022-10-18T11:34:09.822Z,70.15
2022-10-18T11:39:26.633Z,69.50
2022-10-18T11:44:42.485Z,68.26
2022-10-18T11:49:50.062Z,68.49
2022-10-18T11:55:09.682Z,67.61
2022-10-18T12:00:29.120Z,66.88
2022-10-18T12:05:33.373Z,67.41
2022-10-18T12:10:59.950Z,67.78
2022-10-18T12:15:58.152Z,67.42
2022-10-18T12:21:01.781Z,68.18
2022-10-18T12:26:06.767Z,68.94
2022-10-18T12:31:23.354Z,68.87
2022-10-18T12:36:37.392Z,68.85
2022-10-18T12:41:38.987Z,69.20
2022-10-18T12:46:55.983Z,69.44
2022-10-18T12:52:07.541Z,69.61
2022-10-18T12:57:23.519Z,69.77
2022-10-18T13:02:28.191Z,70.21
2022-10-18T13:07:40.849Z,70.21
2022-10-18T13:12:45.052Z,70.55
2022-10-18T13:18:19.586Z,70.27
2022-10-18T13:23:53.977Z,70.99
2022-10-18T13:29:13.882Z,71.48
2022-10-18T13:34:24.500Z,71.63
2022-10-18T13:39:27.081Z,72.98
2022-10-18T13:44:37.706Z,73.67
2022-10-18T13:49:39.235Z,75.14
2022-10-18T13:54:55.696Z,75.39
2022-10-18T14:00:33.700Z,75.11
2022-10-18T14:05:56.968Z,74.88
2022-10-18T14:11:06.155Z,74.91
2022-10-18T14:16:32.600Z,74.00
2022-10-18T14:21:38.384Z,74.17
2022-10-18T14:31:54.417Z,74.21
2022-10-18T14:36:55.909Z,75.13
2022-10-18T14:41:58.313Z,75.54
2022-10-18T14:47:20.641Z,75.75
2022-10-18T14:52:35.721Z,76.05
2022-10-18T14:57:37.711Z,76.34
2022-10-18T15:02:39.680Z,76.97
2022-10-18T15:07:41.520Z,77.22
2022-10-18T15:13:08.042Z,77.21
2022-10-18T15:18:07.064Z,77.40
2022-10-18T15:23:27.002Z,77.16
2022-10-18T15:28:36.277Z,77.32
2022-10-18T15:33:37.911Z,77.28
2022-10-18T15:38:39.634Z,77.24
2022-10-18T15:43:41.144Z,77.43
2022-10-18T15:48:42.631Z,77.99
2022-10-18T15:53:50.485Z,78.96
2022-10-18T15:58:52.341Z,80.61
2022-10-18T16:08:56.493Z,81.40
2022-10-18T16:14:00.403Z,82.26
2022-10-18T16:19:02.636Z,82.82
2022-10-18T16:24:05.153Z,83.12
2022-10-18T16:29:07.643Z,83.51
2022-10-18T16:34:11.781Z,83.76
2022-10-18T16:39:17.724Z,83.97
2022-10-18T16:44:19.422Z,84.36
2022-10-18T16:49:24.089Z,84.38
2022-10-18T16:54:26.011Z,84.74
2022-10-18T16:59:30.153Z,84.51
2022-10-18T17:04:31.608Z,84.59
2022-10-18T17:09:34.897Z,84.63
2022-10-18T17:14:36.959Z,84.74
2022-10-18T17:19:38.428Z,84.63
2022-10-18T17:24:39.830Z,85.04
2022-10-18T17:29:41.252Z,85.02
2022-10-18T17:34:42.732Z,85.71
2022-10-18T17:39:44.189Z,85.99
2022-10-18T17:44:46.183Z,86.72
2022-10-18T17:49:47.836Z,86.89
2022-10-18T17:54:49.295Z,88.09
2022-10-18T17:59:50.726Z,89.13
2022-10-18T18:04:54.269Z,90.58
2022-10-18T18:09:56.579Z,90.82
2022-10-18T18:14:58.054Z,91.48
2022-10-18T18:19:59.563Z,91.61
2022-10-18T18:25:00.957Z,92.76
2022-10-18T18:30:02.428Z,93.54
2022-10-18T18:35:04.162Z,93.91
2022-10-18T18:40:06.168Z,94.17
2022-10-18T18:45:07.774Z,94.30
2022-10-18T18:50:09.419Z,94.54
2022-10-18T18:55:10.976Z,94.73
2022-10-18T19:00:13.353Z,95.45
2022-10-18T19:05:14.851Z,96.10
2022-10-18T19:10:16.322Z,96.46
2022-10-18T19:15:19.267Z,97.37
2022-10-18T19:20:20.838Z,97.96
2022-10-18T19:25:24.786Z,98.72
2022-10-18T19:30:28.413Z,99.23
2022-10-18T19:35:29.898Z,99.72
2022-10-18T19:40:31.311Z,100.00
2022-10-18T19:45:32.750Z,100.00
2022-10-18T19:50:35.032Z,100.00
2022-10-18T19:55:36.555Z,100.00
2022-10-18T20:00:38.140Z,100.00
2022-10-18T20:05:39.572Z,100.00
2022-10-18T20:10:41.044Z,100.00
2022-10-18T20:15:42.707Z,100.00
2022-10-18T20:20:47.328Z,100.00
2022-10-18T20:26:00.507Z,100.00
2022-10-18T20:31:07.205Z,100.00
2022-10-18T20:36:11.823Z,100.00
2022-10-18T20:41:19.439Z,100.00
2022-10-18T20:46:22.172Z,100.00
2022-10-18T20:51:23.653Z,100.00
2022-10-18T20:56:28.724Z,100.00
2022-10-18T21:01:31.856Z,100.00
2022-10-18T21:06:36.179Z,100.00
2022-10-18T21:11:40.236Z,100.00
2022-10-18T21:16:43.344Z,100.00
2022-10-18T21:21:47.041Z,100.00
2022-10-18T21:26:49.061Z,100.00
2022-10-18T21:31:55.137Z,100.00
2022-10-18T21:36:56.543Z,100.00
2022-10-18T21:41:58.002Z,100.00
2022-10-18T21:46:59.423Z,100.00
2022-10-18T21:52:03.713Z,100.00
2022-10-18T21:57:05.165Z,100.00
2022-10-18T22:02:06.634Z,100.00
2022-10-18T22:07:08.139Z,100.00
2022-10-18T22:12:10.932Z,100.00
2022-10-18T22:17:12.532Z,100.00
2022-10-18T22:22:13.997Z,100.00
2022-10-18T22:27:15.435Z,100.00
2022-10-18T22:32:16.840Z,100.00
2022-10-18T22:37:18.274Z,100.00
2022-10-18T22:42:19.671Z,100.00
2022-10-18T22:47:21.188Z,100.00
2022-10-18T22:52:22.648Z,100.00
2022-10-18T22:57:24.062Z,100.00
2022-10-18T23:02:25.491Z,100.00
2022-10-18T23:07:26.898Z,100.00
2022-10-18T23:12:28.317Z,100.00
2022-10-18T23:17:29.890Z,100.00
2022-10-18T23:22:31.798Z,100.00
2022-10-18T23:27:33.649Z,100.00
2022-10-18T23:32:35.929Z,100.00
2022-10-18T23:37:37.773Z,100.00
2022-10-18T23:42:39.519Z,100.00
2022-10-18T23:47:40.953Z,100.00
2022-10-18T23:52:42.396Z,100.00
2022-10-18T23:57:43.860Z,100.00
